Carrigaline, Ireland
Current Conditions -  °F | °C
As of 4:30 AM on Monday 20 Oct 2014 (Local Time) from EICK Reporting Station
Broken Clouds Broken Clouds  
Wind Chill: 50°   Ceiling: 3100
Heat Index: 50°   Visibility: 6mi
Dew Point: 50°   Wind: 10mph
Humidity: 100%   Direction: 230°SW
Pressure: 29.94"   Gusts: NA
Location:  51.81°N, 8.39°W
Report Text: EICK 200430Z 23009KT 9999 BKN031 10/10 Q1014 NOSIG
Loading
Personal Weather Stations






























Interactive Weather Map
Tropical Storm Tracking
New forecast layout! Learn more

10-Day Weather Forecast

Advertisements
Track Severe Weather on mobile